createdAt,value
2023-04-21T00:00:52.407Z,90.58
2023-04-21T00:03:27.102Z,90.51
2023-04-21T00:05:56.339Z,89.99
2023-04-21T00:11:59.157Z,89.12
2023-04-21T00:14:37.713Z,89.62
2023-04-21T00:17:07.261Z,90.06
2023-04-21T00:34:44.178Z,87.12
2023-04-21T00:37:12.367Z,88.12
2023-04-21T00:39:40.239Z,87.97
2023-04-21T00:42:08.184Z,88.07
2023-04-21T00:44:36.437Z,88.02
2023-04-21T00:47:05.160Z,88.01
2023-04-21T00:49:32.922Z,88.58
2023-04-21T00:52:01.599Z,87.85
2023-04-21T00:54:28.838Z,87.00
2023-04-21T00:56:56.056Z,86.83
2023-04-21T00:59:23.093Z,86.78
2023-04-21T01:01:50.155Z,86.22
2023-04-21T01:04:17.243Z,86.60
2023-04-21T01:06:44.447Z,86.21
2023-04-21T01:09:13.541Z,85.93
2023-04-21T01:11:40.736Z,86.45
2023-04-21T01:14:11.408Z,86.83
2023-04-21T01:16:39.880Z,85.70
2023-04-21T01:19:07.079Z,85.75
2023-04-21T01:21:40.456Z,86.28
2023-04-21T01:24:07.966Z,85.66
2023-04-21T01:30:46.044Z,86.42
2023-04-21T01:33:13.641Z,86.94
2023-04-21T01:35:40.705Z,86.86
2023-04-21T01:38:10.967Z,86.99
2023-04-21T01:40:39.618Z,87.57
2023-04-21T01:43:09.074Z,87.76
2023-04-21T01:45:36.317Z,87.24
2023-04-21T01:48:04.899Z,87.33
2023-04-21T01:50:33.053Z,86.54
2023-04-21T01:52:59.917Z,86.97
2023-04-21T01:56:19.910Z,86.44
2023-04-21T01:58:47.065Z,86.13
2023-04-21T02:01:20.395Z,85.37
2023-04-21T02:03:48.516Z,85.58
2023-04-21T02:06:15.558Z,85.86
2023-04-21T02:08:42.677Z,85.66
2023-04-21T02:11:09.707Z,85.70
2023-04-21T02:13:38.406Z,86.63
2023-04-21T02:16:13.795Z,87.51
2023-04-21T02:18:41.166Z,88.44
2023-04-21T02:21:08.050Z,88.15
2023-04-21T02:23:34.981Z,88.25
2023-04-21T02:26:01.850Z,87.48
2023-04-21T02:28:29.162Z,87.44
2023-04-21T02:30:57.597Z,88.27
2023-04-21T02:33:24.538Z,88.08
2023-04-21T02:35:51.623Z,88.13
2023-04-21T02:38:18.512Z,88.63
2023-04-21T02:40:45.428Z,88.54
2023-04-21T02:43:14.270Z,88.35
2023-04-21T02:45:41.242Z,88.07
2023-04-21T02:48:09.793Z,87.69
2023-04-21T02:50:37.108Z,87.62
2023-04-21T02:53:04.215Z,86.84
2023-04-21T02:55:31.543Z,87.38
2023-04-21T02:57:58.780Z,87.99
2023-04-21T03:00:25.822Z,88.73
2023-04-21T03:03:24.540Z,88.83
2023-04-21T03:05:57.540Z,88.94
2023-04-21T03:08:28.158Z,88.60
2023-04-21T03:11:21.877Z,88.67
2023-04-21T03:14:28.523Z,88.86
2023-04-21T03:18:29.925Z,89.04
2023-04-21T03:21:00.953Z,89.23
2023-04-21T03:23:28.187Z,89.34
2023-04-21T03:25:55.207Z,89.63
2023-04-21T03:28:22.086Z,89.60
2023-04-21T03:30:49.105Z,89.29
2023-04-21T03:33:16.043Z,89.77
2023-04-21T03:35:43.051Z,89.51
2023-04-21T03:38:11.362Z,89.19
2023-04-21T03:40:38.294Z,88.97
2023-04-21T03:43:05.428Z,89.15
2023-04-21T03:45:35.616Z,89.05
2023-04-21T03:48:03.023Z,88.86
2023-04-21T03:50:30.168Z,88.48
2023-04-21T03:52:57.204Z,88.68
2023-04-21T03:55:25.538Z,88.76
2023-04-21T03:57:52.687Z,88.73
2023-04-21T04:00:19.779Z,88.71
2023-04-21T04:02:47.503Z,89.17
2023-04-21T04:05:14.678Z,89.13
2023-04-21T04:07:42.073Z,89.10
2023-04-21T04:10:10.643Z,88.55
2023-04-21T04:12:38.961Z,87.14
2023-04-21T04:15:07.368Z,86.67
2023-04-21T04:17:35.211Z,85.95
2023-04-21T04:20:02.384Z,86.34
2023-04-21T04:23:47.937Z,88.51
2023-04-21T04:26:15.162Z,89.58
2023-04-21T04:28:43.499Z,89.93
2023-04-21T04:31:10.581Z,90.08
2023-04-21T04:33:47.659Z,90.03
2023-04-21T04:36:14.671Z,90.18
2023-04-21T04:38:41.590Z,90.14
2023-04-21T04:41:09.251Z,90.36
2023-04-21T04:43:36.601Z,90.60
2023-04-21T04:46:05.426Z,90.70
2023-04-21T04:48:32.646Z,90.84
2023-04-21T04:50:59.527Z,90.50
2023-04-21T04:53:28.205Z,90.62
2023-04-21T04:55:55.582Z,90.19
2023-04-21T04:58:22.440Z,90.04
2023-04-21T05:00:49.270Z,90.48
2023-04-21T05:03:17.729Z,90.21
2023-04-21T05:05:45.031Z,90.27
2023-04-21T05:08:12.263Z,89.63
2023-04-21T05:10:39.137Z,90.83
2023-04-21T05:13:06.536Z,92.85
2023-04-21T05:15:33.514Z,94.38
2023-04-21T05:18:00.466Z,94.02
2023-04-21T05:20:28.735Z,93.94
2023-04-21T05:22:55.682Z,93.41
2023-04-21T05:25:22.777Z,93.76
2023-04-21T05:27:49.575Z,93.69
2023-04-21T05:30:17.215Z,93.03
2023-04-21T05:32:44.291Z,92.35
2023-04-21T05:35:11.431Z,91.66
2023-04-21T05:37:39.758Z,90.92
2023-04-21T05:40:07.792Z,90.79
2023-04-21T05:42:35.231Z,89.91
2023-04-21T05:45:02.136Z,90.03
2023-04-21T05:47:29.183Z,90.18
2023-04-21T05:49:56.310Z,90.03
2023-04-21T05:52:23.400Z,90.34
2023-04-21T05:54:52.072Z,90.67
2023-04-21T05:57:19.349Z,91.06
2023-04-21T05:59:46.502Z,92.60
2023-04-21T06:02:13.499Z,93.53
2023-04-21T06:04:40.593Z,94.28
2023-04-21T06:07:09.635Z,94.48
2023-04-21T06:09:36.971Z,94.31
2023-04-21T06:12:06.120Z,93.09
2023-04-21T06:14:33.357Z,92.49
2023-04-21T06:17:00.633Z,92.04
2023-04-21T06:19:27.504Z,91.61
2023-04-21T06:21:56.296Z,91.24
2023-04-21T06:24:24.458Z,90.66
2023-04-21T06:26:59.351Z,89.70
2023-04-21T06:29:27.981Z,88.61
2023-04-21T06:31:56.621Z,88.01
2023-04-21T06:34:24.524Z,87.47
2023-04-21T06:36:55.068Z,86.14
2023-04-21T06:39:22.223Z,86.17
2023-04-21T06:41:49.713Z,85.23
2023-04-21T06:44:18.726Z,84.76
2023-04-21T06:46:47.585Z,84.47
2023-04-21T06:49:14.644Z,83.80
2023-04-21T06:51:41.633Z,83.08
2023-04-21T06:54:10.231Z,83.41
2023-04-21T06:56:37.592Z,85.14
2023-04-21T06:59:04.612Z,86.17
2023-04-21T07:01:32.768Z,85.93
2023-04-21T07:04:06.896Z,86.42
2023-04-21T07:06:34.311Z,85.15
2023-04-21T07:09:01.210Z,83.28
2023-04-21T07:11:28.192Z,81.94
2023-04-21T07:13:55.488Z,82.43
2023-04-21T07:16:22.513Z,81.43
2023-04-21T07:18:49.537Z,79.73
2023-04-21T07:21:17.827Z,81.71
2023-04-21T07:23:44.681Z,82.22
2023-04-21T07:26:11.802Z,82.08
2023-04-21T07:29:54.714Z,81.22
2023-04-21T07:32:23.645Z,80.42
2023-04-21T07:34:50.896Z,78.94
2023-04-21T07:37:19.283Z,78.49
2023-04-21T07:39:46.540Z,77.20
2023-04-21T07:42:13.642Z,76.85
2023-04-21T07:44:41.549Z,75.91
2023-04-21T07:50:06.509Z,75.59
2023-04-21T07:52:35.904Z,74.85
2023-04-21T07:55:02.778Z,73.79
2023-04-21T07:57:30.241Z,73.97
2023-04-21T07:59:57.291Z,75.02
2023-04-21T08:02:24.321Z,74.94
2023-04-21T08:04:51.520Z,75.28
2023-04-21T08:07:18.518Z,74.59
2023-04-21T08:09:46.893Z,73.22
2023-04-21T08:12:13.864Z,73.72
2023-04-21T08:14:41.204Z,73.05
2023-04-21T08:17:08.156Z,73.64
2023-04-21T08:19:35.500Z,72.68
2023-04-21T08:22:02.454Z,69.47
2023-04-21T08:24:29.417Z,69.70
2023-04-21T08:26:57.851Z,65.99
2023-04-21T08:29:25.595Z,65.55
2023-04-21T08:31:58.806Z,63.68
2023-04-21T08:34:27.912Z,61.06
2023-04-21T08:36:57.610Z,58.99
2023-04-21T08:39:24.712Z,58.93
2023-04-21T08:41:52.354Z,60.13
2023-04-21T08:44:44.283Z,64.39
2023-04-21T08:49:52.892Z,62.69
2023-04-21T08:52:19.739Z,65.54
2023-04-21T08:54:47.819Z,65.78
2023-04-21T08:57:16.296Z,67.18
2023-04-21T08:59:45.809Z,70.51
2023-04-21T09:02:14.771Z,69.23
2023-04-21T09:04:47.655Z,67.98
2023-04-21T09:07:32.926Z,67.83
2023-04-21T09:10:00.758Z,66.38
2023-04-21T09:12:29.339Z,64.66
2023-04-21T09:14:57.958Z,62.77
2023-04-21T09:17:29.823Z,63.05
2023-04-21T09:19:57.593Z,62.95
2023-04-21T09:22:27.766Z,60.06
2023-04-21T09:24:59.887Z,57.86
2023-04-21T09:27:26.826Z,56.93
2023-04-21T09:29:54.720Z,56.40
2023-04-21T09:32:23.954Z,55.05
2023-04-21T09:34:50.969Z,55.44
2023-04-21T09:37:19.175Z,55.38
2023-04-21T09:40:03.289Z,56.00
2023-04-21T09:42:36.329Z,54.32
2023-04-21T09:48:01.172Z,50.97
2023-04-21T09:53:07.671Z,53.40
2023-04-21T09:55:35.698Z,52.40
2023-04-21T09:58:06.145Z,50.33
2023-04-21T10:00:34.653Z,56.12
2023-04-21T10:03:06.610Z,56.94
2023-04-21T10:05:33.750Z,54.26
2023-04-21T10:08:01.965Z,52.29
2023-04-21T10:10:30.677Z,49.57
2023-04-21T10:12:59.241Z,46.93
2023-04-21T10:15:32.022Z,51.32
2023-04-21T10:18:18.932Z,52.85
2023-04-21T10:20:56.932Z,51.63
2023-04-21T10:23:30.664Z,49.34
2023-04-21T10:26:20.582Z,48.64
2023-04-21T10:28:54.222Z,45.59
2023-04-21T10:31:51.020Z,44.27
2023-04-21T10:34:28.697Z,44.53
2023-04-21T10:37:19.132Z,49.23
2023-04-21T10:39:53.920Z,49.94
2023-04-21T10:42:24.822Z,49.21
2023-04-21T10:45:12.417Z,47.61
2023-04-21T10:47:44.079Z,50.97
2023-04-21T10:50:17.053Z,50.59
2023-04-21T10:52:47.576Z,52.36
2023-04-21T10:55:15.328Z,49.07
2023-04-21T10:57:45.323Z,47.13
2023-04-21T11:00:19.084Z,47.55
2023-04-21T11:02:55.594Z,47.98
2023-04-21T11:05:34.099Z,47.02
2023-04-21T11:08:12.314Z,48.92
2023-04-21T11:10:51.150Z,49.40
2023-04-21T11:13:21.595Z,51.10
2023-04-21T11:16:02.093Z,48.55
2023-04-21T11:18:40.454Z,49.35
2023-04-21T11:21:15.357Z,46.71
2023-04-21T11:23:50.289Z,45.90
2023-04-21T11:26:18.185Z,46.76
2023-04-21T11:28:48.572Z,46.21
2023-04-21T11:31:16.168Z,46.27
2023-04-21T11:33:43.464Z,47.21
2023-04-21T11:36:12.525Z,49.33
2023-04-21T11:38:41.145Z,52.31
2023-04-21T11:41:10.169Z,52.40
2023-04-21T11:43:37.757Z,53.46
2023-04-21T11:46:18.261Z,54.12
2023-04-21T11:48:45.686Z,53.10
2023-04-21T11:51:19.413Z,52.71
2023-04-21T11:53:48.777Z,53.09
2023-04-21T11:56:20.159Z,52.17
2023-04-21T11:58:47.626Z,50.97
2023-04-21T12:01:16.850Z,50.71
2023-04-21T12:03:52.216Z,54.65
2023-04-21T12:06:26.473Z,58.75
2023-04-21T12:08:59.904Z,60.12
2023-04-21T12:11:29.399Z,58.88
2023-04-21T12:13:57.691Z,59.60
2023-04-21T12:16:25.489Z,59.36
2023-04-21T12:18:52.875Z,59.51
2023-04-21T12:21:26.319Z,58.04
2023-04-21T12:23:54.243Z,57.49
2023-04-21T12:26:21.675Z,57.59
2023-04-21T12:28:50.388Z,57.10
2023-04-21T12:31:20.068Z,57.48
2023-04-21T12:33:47.145Z,56.18
2023-04-21T12:36:14.325Z,57.80
2023-04-21T12:38:42.656Z,58.13
2023-04-21T12:41:09.934Z,57.63
2023-04-21T12:43:37.288Z,57.10
2023-04-21T12:46:04.908Z,57.47
2023-04-21T12:48:32.111Z,58.45
2023-04-21T12:50:58.965Z,58.92
2023-04-21T12:53:25.947Z,57.87
2023-04-21T12:56:03.963Z,58.57
2023-04-21T12:58:32.547Z,58.35
2023-04-21T13:00:59.412Z,58.59
2023-04-21T13:03:26.812Z,58.05
2023-04-21T13:05:53.935Z,59.15
2023-04-21T13:08:22.200Z,58.05
2023-04-21T13:10:49.167Z,58.06
2023-04-21T13:13:17.474Z,57.68
2023-04-21T13:15:45.229Z,57.54
2023-04-21T13:18:12.220Z,57.51
2023-04-21T13:20:39.177Z,56.96
2023-04-21T13:23:06.053Z,57.07
2023-04-21T13:25:33.025Z,57.93
2023-04-21T13:28:01.161Z,57.64
2023-04-21T13:30:32.080Z,57.53
2023-04-21T13:32:59.071Z,56.67
2023-04-21T13:35:26.803Z,56.84
2023-04-21T13:37:53.896Z,57.32
2023-04-21T13:40:21.016Z,57.96
2023-04-21T13:42:48.398Z,57.05
2023-04-21T13:45:15.496Z,56.30
2023-04-21T13:47:45.483Z,55.68
2023-04-21T13:50:12.523Z,56.53
2023-04-21T13:52:40.331Z,56.42
2023-04-21T13:55:08.017Z,56.20
2023-04-21T13:57:35.243Z,56.59
2023-04-21T14:00:02.815Z,56.74
2023-04-21T14:02:31.510Z,56.81
2023-04-21T14:05:00.634Z,57.13
2023-04-21T14:07:27.927Z,55.30
2023-04-21T14:09:54.910Z,55.27
2023-04-21T14:12:21.888Z,55.36
2023-04-21T14:14:52.035Z,54.46
2023-04-21T14:17:18.993Z,54.69
2023-04-21T14:19:46.167Z,55.36
2023-04-21T14:22:14.530Z,54.24
2023-04-21T14:24:42.060Z,54.11
2023-04-21T14:27:09.617Z,54.47
2023-04-21T14:29:36.743Z,52.91
2023-04-21T14:32:04.075Z,53.46
2023-04-21T14:34:31.181Z,52.15
2023-04-21T14:36:58.237Z,51.43
2023-04-21T14:39:27.226Z,52.20
2023-04-21T14:41:54.208Z,49.94
2023-04-21T14:44:21.121Z,49.98
2023-04-21T14:46:57.381Z,48.93
2023-04-21T14:55:45.556Z,48.00
2023-04-21T14:58:14.156Z,50.84
2023-04-21T15:04:10.105Z,51.17
2023-04-21T15:07:47.560Z,49.99
2023-04-21T15:13:15.125Z,50.51
2023-04-21T15:45:27.021Z,48.39
2023-04-21T15:47:54.007Z,47.67
2023-04-21T15:50:21.768Z,47.40
2023-04-21T15:52:48.719Z,47.23
2023-04-21T15:55:15.961Z,47.53
2023-04-21T15:57:42.940Z,46.58
2023-04-21T16:38:57.981Z,48.75
2023-04-21T16:48:19.520Z,50.31
2023-04-21T16:50:46.555Z,50.34
2023-04-21T16:53:13.535Z,51.09
2023-04-21T16:55:40.814Z,51.54
2023-04-21T16:58:08.474Z,51.46
2023-04-21T17:00:35.480Z,51.39
2023-04-21T17:03:03.095Z,50.98
2023-04-21T17:05:31.806Z,51.60
2023-04-21T17:07:58.721Z,51.17
2023-04-21T17:10:25.651Z,50.66
2023-04-21T17:12:52.937Z,50.52
2023-04-21T17:15:20.284Z,50.60
2023-04-21T17:17:47.623Z,49.99
2023-04-21T17:20:15.614Z,49.92
2023-04-21T17:22:44.134Z,50.12
2023-04-21T17:25:11.681Z,50.36
2023-04-21T17:27:39.424Z,50.70
2023-04-21T17:30:08.631Z,51.19
2023-04-21T17:32:38.720Z,51.67
2023-04-21T17:35:07.476Z,51.95
2023-04-21T17:37:35.004Z,52.90
2023-04-21T17:40:03.976Z,54.02
2023-04-21T17:42:31.970Z,54.34
2023-04-21T17:44:59.059Z,54.83
2023-04-21T17:47:26.708Z,55.22
2023-04-21T17:49:53.940Z,55.53
2023-04-21T17:52:20.862Z,55.58
2023-04-21T17:54:47.915Z,55.99
2023-04-21T17:57:16.292Z,56.55
2023-04-21T17:59:43.314Z,56.10
2023-04-21T18:02:10.551Z,56.54
2023-04-21T18:04:38.317Z,56.73
2023-04-21T18:07:06.866Z,56.80
2023-04-21T18:09:33.755Z,57.15
2023-04-21T18:12:00.758Z,65.12
2023-04-21T18:14:29.442Z,67.59
2023-04-21T18:16:56.488Z,70.69
2023-04-21T18:19:23.658Z,69.88
2023-04-21T18:21:50.891Z,72.01
2023-04-21T18:24:18.389Z,71.61
2023-04-21T18:26:45.489Z,72.73
2023-04-21T18:29:12.519Z,71.67
2023-04-21T18:31:44.129Z,71.35
2023-04-21T18:34:11.275Z,71.69
2023-04-21T18:36:41.002Z,70.91
2023-04-21T18:39:08.467Z,70.81
2023-04-21T18:41:35.581Z,70.86
2023-04-21T18:44:02.716Z,72.29
2023-04-21T18:46:30.556Z,71.79
2023-04-21T18:48:59.682Z,72.95
2023-04-21T18:51:27.766Z,73.13
2023-04-21T18:53:55.453Z,74.79
2023-04-21T18:56:22.389Z,74.51
2023-04-21T18:58:49.519Z,74.98
2023-04-21T19:01:16.922Z,75.33
2023-04-21T19:03:44.998Z,75.92
2023-04-21T19:06:13.419Z,76.13
2023-04-21T19:08:42.966Z,75.28
2023-04-21T19:11:13.184Z,75.11
2023-04-21T19:13:41.248Z,74.91
2023-04-21T19:16:11.128Z,74.76
2023-04-21T19:18:38.114Z,74.19
2023-04-21T19:21:04.964Z,74.73
2023-04-21T19:23:33.423Z,74.71
2023-04-21T19:26:00.537Z,75.00
2023-04-21T19:28:28.232Z,76.09
2023-04-21T19:30:55.287Z,75.84
2023-04-21T19:33:22.153Z,74.59
2023-04-21T19:35:50.401Z,74.85
2023-04-21T19:38:17.482Z,74.63
2023-04-21T19:40:45.919Z,75.26
2023-04-21T19:43:12.923Z,75.21
2023-04-21T19:45:39.836Z,75.07
2023-04-21T19:52:43.651Z,75.20
2023-04-21T19:55:36.845Z,74.41
2023-04-21T19:58:38.710Z,75.86
2023-04-21T20:01:34.486Z,76.29
2023-04-21T20:04:22.035Z,77.28
2023-04-21T20:07:43.125Z,77.90
2023-04-21T20:10:34.987Z,78.58
2023-04-21T20:13:27.984Z,80.79
2023-04-21T20:19:12.297Z,81.19
2023-04-21T20:22:01.765Z,81.52
2023-04-21T20:24:29.512Z,81.23
2023-04-21T20:26:56.724Z,81.07
2023-04-21T20:29:25.527Z,82.27
2023-04-21T20:31:53.572Z,82.99
2023-04-21T20:34:21.015Z,83.08
2023-04-21T20:36:49.205Z,82.26
2023-04-21T20:39:16.383Z,82.17
2023-04-21T20:41:43.538Z,82.65
2023-04-21T20:44:12.992Z,82.94
2023-04-21T20:46:41.663Z,81.84
2023-04-21T20:49:08.728Z,81.09
2023-04-21T20:51:40.713Z,80.00
2023-04-21T20:54:07.921Z,79.55
2023-04-21T20:56:34.938Z,77.85
2023-04-21T20:59:01.877Z,78.74
2023-04-21T21:01:30.670Z,78.46
2023-04-21T21:04:02.556Z,77.68
2023-04-21T21:06:30.414Z,75.50
2023-04-21T21:08:59.452Z,75.75
2023-04-21T21:11:26.520Z,78.38
2023-04-21T21:13:53.518Z,78.79
2023-04-21T21:16:20.599Z,79.73
2023-04-21T21:18:50.218Z,80.58
2023-04-21T21:21:18.756Z,81.25
2023-04-21T21:23:50.386Z,81.19
2023-04-21T21:26:17.750Z,80.55
2023-04-21T21:28:44.769Z,81.09
2023-04-21T21:31:11.605Z,81.12
2023-04-21T21:33:38.904Z,81.60
2023-04-21T21:36:06.551Z,81.13
2023-04-21T21:38:34.897Z,81.40
2023-04-21T21:41:01.882Z,82.30
2023-04-21T21:43:28.760Z,82.65
2023-04-21T21:45:55.882Z,82.22
2023-04-21T21:48:22.865Z,81.91
2023-04-21T21:50:49.778Z,81.60
2023-04-21T21:53:17.916Z,80.92
2023-04-21T21:55:46.407Z,80.89
2023-04-21T21:58:13.974Z,80.54
2023-04-21T22:00:41.046Z,80.08
2023-04-21T22:03:08.539Z,82.30
2023-04-21T22:05:35.554Z,82.98
2023-04-21T22:08:02.821Z,83.34
2023-04-21T22:10:29.823Z,84.37
2023-04-21T22:12:58.324Z,84.62
2023-04-21T22:15:25.258Z,84.89
2023-04-21T22:17:52.767Z,84.60
2023-04-21T22:20:19.766Z,84.37
2023-04-21T22:22:46.752Z,84.80
2023-04-21T22:25:13.955Z,85.01
2023-04-21T22:27:40.897Z,85.23
2023-04-21T22:30:10.989Z,85.36
2023-04-21T22:32:38.187Z,85.20
2023-04-21T22:35:06.275Z,85.65
2023-04-21T22:37:33.243Z,85.77
2023-04-21T22:40:01.429Z,85.63
2023-04-21T22:42:28.392Z,85.38
2023-04-21T22:44:55.683Z,84.49
2023-04-21T22:47:23.991Z,83.79
2023-04-21T22:49:50.978Z,82.87
2023-04-21T22:52:17.971Z,82.27
2023-04-21T22:54:44.901Z,81.86
2023-04-21T22:57:13.390Z,82.05
2023-04-21T22:59:40.492Z,82.22
2023-04-21T23:02:07.877Z,82.21
2023-04-21T23:04:36.524Z,81.71
2023-04-21T23:07:03.383Z,81.13
2023-04-21T23:09:30.340Z,80.03
2023-04-21T23:11:57.596Z,79.46
2023-04-21T23:14:24.588Z,79.78
2023-04-21T23:16:51.560Z,79.46
2023-04-21T23:19:18.587Z,79.11
2023-04-21T23:21:47.380Z,79.82
2023-04-21T23:24:14.316Z,80.29
2023-04-21T23:26:41.218Z,80.99
2023-04-21T23:29:08.439Z,82.01
2023-04-21T23:31:35.445Z,82.17
2023-04-21T23:34:02.450Z,82.92
2023-04-21T23:36:29.338Z,83.62
2023-04-21T23:38:58.018Z,83.66
2023-04-21T23:41:25.126Z,83.48
2023-04-21T23:43:52.046Z,83.49
2023-04-21T23:46:19.223Z,83.83
2023-04-21T23:48:46.235Z,84.30
2023-04-21T23:51:13.494Z,84.44
2023-04-21T23:53:40.550Z,84.28
2023-04-21T23:56:09.048Z,83.70
2023-04-21T23:58:36.153Z,83.35
